createdAt,value
2019-05-26T00:02:57.426Z,9.14
2019-05-26T00:08:02.744Z,8.97
2019-05-26T00:13:07.908Z,8.87
2019-05-26T00:18:13.145Z,8.83
2019-05-26T00:23:18.299Z,8.77
2019-05-26T00:28:23.541Z,8.81
2019-05-26T00:33:29.563Z,8.82
2019-05-26T00:38:35.502Z,8.82
2019-05-26T00:43:40.738Z,8.79
2019-05-26T00:48:46.097Z,8.80
2019-05-26T00:53:51.317Z,8.85
2019-05-26T00:58:56.866Z,8.83
2019-05-26T01:04:02.764Z,8.79
2019-05-26T01:09:09.482Z,8.67
2019-05-26T01:14:14.796Z,8.45
2019-05-26T01:19:20.497Z,8.48
2019-05-26T01:24:26.091Z,8.48
2019-05-26T01:29:31.363Z,8.48
2019-05-26T01:34:36.619Z,8.48
2019-05-26T01:39:41.853Z,8.48
2019-05-26T01:44:47.128Z,8.45
2019-05-26T01:49:52.365Z,8.43
2019-05-26T01:54:57.597Z,8.42
2019-05-26T02:00:02.849Z,8.41
2019-05-26T02:05:09.683Z,8.36
2019-05-26T02:10:15.313Z,8.32
2019-05-26T02:15:21.670Z,8.27
2019-05-26T02:20:27.022Z,8.17
2019-05-26T02:25:32.268Z,8.14
2019-05-26T02:30:37.511Z,8.10
2019-05-26T02:35:42.756Z,8.01
2019-05-26T02:40:48.045Z,7.98
2019-05-26T02:45:53.279Z,7.92
2019-05-26T02:50:59.114Z,7.90
2019-05-26T02:56:05.349Z,7.85
2019-05-26T03:01:11.351Z,7.80
2019-05-26T03:06:18.428Z,7.77
2019-05-26T03:11:26.483Z,7.75
2019-05-26T03:16:34.278Z,7.74
2019-05-26T03:21:39.671Z,7.75
2019-05-26T03:26:44.952Z,7.73
2019-05-26T03:31:50.217Z,7.74
2019-05-26T03:36:56.451Z,7.70
2019-05-26T03:42:01.851Z,7.69
2019-05-26T03:47:07.547Z,7.70
2019-05-26T03:52:12.820Z,7.73
2019-05-26T03:57:18.355Z,7.75
2019-05-26T04:02:23.609Z,7.75
2019-05-26T04:07:28.897Z,7.75
2019-05-26T04:12:34.456Z,7.79
2019-05-26T04:17:39.704Z,7.84
2019-05-26T04:22:45.252Z,7.91
2019-05-26T04:27:50.884Z,7.97
2019-05-26T04:32:56.710Z,8.02
2019-05-26T04:38:01.983Z,8.10
2019-05-26T04:43:07.236Z,8.17
2019-05-26T04:48:13.205Z,8.27
2019-05-26T04:53:18.859Z,8.36
2019-05-26T04:58:24.472Z,8.46
2019-05-26T05:03:29.772Z,8.59
2019-05-26T05:08:35.043Z,8.72
2019-05-26T05:13:40.936Z,8.88
2019-05-26T05:18:46.881Z,9.01
2019-05-26T05:23:52.150Z,9.19
2019-05-26T05:28:57.389Z,9.38
2019-05-26T05:34:02.664Z,9.52
2019-05-26T05:39:08.732Z,9.72
2019-05-26T05:44:14.603Z,9.96
2019-05-26T05:49:21.208Z,10.17
2019-05-26T05:54:26.479Z,10.37
2019-05-26T05:59:32.224Z,10.51
2019-05-26T06:04:37.531Z,10.68
2019-05-26T06:09:42.862Z,10.89
2019-05-26T06:14:48.166Z,11.03
2019-05-26T06:19:53.463Z,11.23
2019-05-26T06:24:58.719Z,11.32
2019-05-26T06:30:04.809Z,11.54
2019-05-26T06:35:10.549Z,11.76
2019-05-26T06:40:15.836Z,11.91
2019-05-26T06:45:21.295Z,12.06
2019-05-26T06:50:26.554Z,12.29
2019-05-26T06:55:31.860Z,12.45
2019-05-26T07:00:37.520Z,12.76
2019-05-26T07:05:42.800Z,12.95
2019-05-26T07:10:48.060Z,13.22
2019-05-26T07:15:53.327Z,13.40
2019-05-26T07:20:58.596Z,13.54
2019-05-26T07:26:04.270Z,13.74
2019-05-26T07:31:09.535Z,14.00
2019-05-26T07:36:15.675Z,14.39
2019-05-26T07:41:20.937Z,14.51
2019-05-26T07:46:26.192Z,14.72
2019-05-26T07:51:31.818Z,14.89
2019-05-26T07:56:37.090Z,15.09
2019-05-26T08:01:43.169Z,15.32
2019-05-26T08:06:48.558Z,15.38
2019-05-26T08:11:55.266Z,15.59
2019-05-26T08:17:00.519Z,15.85
2019-05-26T08:22:06.379Z,15.98
2019-05-26T08:27:11.786Z,16.15
2019-05-26T08:32:17.774Z,16.44
2019-05-26T08:37:22.990Z,16.47
2019-05-26T08:42:42.055Z,16.84
2019-05-26T08:47:35.181Z,16.88
2019-05-26T08:52:40.523Z,16.89
2019-05-26T08:57:45.782Z,16.96
2019-05-26T09:02:51.489Z,17.17
2019-05-26T09:07:56.735Z,17.25
2019-05-26T09:13:08.727Z,17.38
2019-05-26T09:18:14.325Z,17.53
2019-05-26T09:23:19.708Z,17.66
2019-05-26T09:28:24.993Z,17.73
2019-05-26T09:33:30.247Z,17.73
2019-05-26T09:38:35.500Z,17.94
2019-05-26T09:43:40.764Z,18.11
2019-05-26T09:48:46.023Z,18.43
2019-05-26T09:54:01.438Z,18.48
2019-05-26T09:59:00.369Z,18.31
2019-05-26T10:04:06.258Z,18.17
2019-05-26T10:09:11.496Z,18.37
2019-05-26T10:14:16.678Z,18.38
2019-05-26T10:19:21.943Z,18.36
2019-05-26T10:24:27.197Z,18.60
2019-05-26T10:29:32.648Z,18.61
2019-05-26T10:34:37.907Z,18.51
2019-05-26T10:39:45.223Z,18.48
2019-05-26T10:44:50.298Z,18.70
2019-05-26T10:49:55.859Z,18.72
2019-05-26T10:55:01.508Z,18.98
2019-05-26T11:00:08.540Z,19.05
2019-05-26T11:05:14.508Z,19.04
2019-05-26T11:10:19.860Z,19.46
2019-05-26T11:15:25.157Z,19.68
2019-05-26T11:20:30.405Z,19.24
2019-05-26T11:25:35.702Z,19.65
2019-05-26T11:30:41.010Z,19.76
2019-05-26T11:35:46.270Z,19.56
2019-05-26T11:40:51.621Z,19.68
2019-05-26T11:45:56.892Z,19.84
2019-05-26T11:51:02.797Z,19.77
2019-05-26T11:56:08.787Z,20.06
2019-05-26T12:01:14.418Z,20.45
2019-05-26T12:06:20.003Z,20.60
2019-05-26T12:11:25.606Z,20.68
2019-05-26T12:16:30.848Z,20.60
2019-05-26T12:21:36.449Z,20.58
2019-05-26T12:26:41.746Z,20.38
2019-05-26T12:31:47.135Z,20.70
2019-05-26T12:36:52.425Z,20.63
2019-05-26T12:41:57.683Z,20.88
2019-05-26T12:47:02.934Z,21.03
2019-05-26T12:52:08.272Z,21.00
2019-05-26T12:57:13.535Z,21.27
2019-05-26T13:02:19.115Z,21.38
2019-05-26T13:07:24.702Z,21.19
2019-05-26T13:12:29.970Z,21.01
2019-05-26T13:17:35.211Z,21.45
2019-05-26T13:22:41.079Z,21.71
2019-05-26T13:27:46.406Z,22.07
2019-05-26T13:32:52.022Z,21.86
2019-05-26T13:37:57.271Z,22.17
2019-05-26T13:43:02.538Z,21.75
2019-05-26T13:48:07.787Z,21.77
2019-05-26T13:53:13.371Z,22.10
2019-05-26T13:58:18.648Z,22.19
2019-05-26T14:03:24.462Z,22.43
2019-05-26T14:08:31.220Z,22.09
2019-05-26T14:13:36.475Z,21.35
2019-05-26T14:18:43.426Z,21.28
2019-05-26T14:23:48.683Z,22.00
2019-05-26T14:28:53.896Z,22.74
2019-05-26T14:33:59.132Z,23.02
2019-05-26T14:39:06.169Z,22.23
2019-05-26T14:44:11.422Z,21.89
2019-05-26T14:49:16.695Z,21.80
2019-05-26T14:54:21.949Z,21.90
2019-05-26T14:59:27.193Z,22.24
2019-05-26T15:04:32.447Z,21.72
2019-05-26T15:09:37.703Z,21.41
2019-05-26T15:14:44.047Z,21.44
2019-05-26T15:19:49.283Z,21.14
2019-05-26T15:24:55.512Z,21.28
2019-05-26T15:30:00.781Z,21.20
2019-05-26T15:35:06.826Z,21.12
2019-05-26T15:40:16.385Z,20.88
2019-05-26T15:45:21.642Z,20.71
2019-05-26T15:50:27.353Z,20.63
2019-05-26T15:55:32.613Z,20.85
2019-05-26T16:00:38.010Z,20.97
2019-05-26T16:05:43.618Z,21.01
2019-05-26T16:10:48.874Z,21.59
2019-05-26T16:15:54.127Z,21.60
2019-05-26T16:21:03.266Z,21.59
2019-05-26T16:26:06.479Z,21.28
2019-05-26T16:31:12.414Z,20.90
2019-05-26T16:36:21.130Z,20.98
2019-05-26T16:41:25.135Z,21.80
2019-05-26T16:46:30.384Z,21.53
2019-05-26T16:51:35.950Z,21.06
2019-05-26T16:56:42.393Z,21.08
2019-05-26T17:01:47.634Z,21.10
2019-05-26T17:06:53.151Z,21.16
2019-05-26T17:11:58.845Z,21.35
2019-05-26T17:17:14.388Z,21.37
2019-05-26T17:22:11.357Z,21.15
2019-05-26T17:27:17.381Z,20.66
2019-05-26T17:32:22.665Z,20.50
2019-05-26T17:37:27.836Z,20.33
2019-05-26T17:42:33.122Z,20.21
2019-05-26T17:47:38.714Z,20.24
2019-05-26T17:52:43.990Z,20.22
2019-05-26T17:57:49.240Z,20.08
2019-05-26T18:02:55.323Z,20.13
2019-05-26T18:08:00.850Z,19.97
2019-05-26T18:13:06.580Z,19.85
2019-05-26T18:18:11.832Z,19.82
2019-05-26T18:23:17.458Z,19.90
2019-05-26T18:28:23.098Z,19.99
2019-05-26T18:33:28.359Z,19.96
2019-05-26T18:38:34.021Z,19.75
2019-05-26T18:43:39.280Z,19.56
2019-05-26T18:48:44.701Z,19.48
2019-05-26T18:53:49.969Z,19.30
2019-05-26T18:58:55.229Z,19.09
2019-05-26T19:04:00.477Z,18.84
2019-05-26T19:09:08.808Z,18.42
2019-05-26T19:14:14.159Z,18.03
2019-05-26T19:19:19.426Z,17.68
2019-05-26T19:24:24.679Z,17.41
2019-05-26T19:29:29.957Z,17.22
2019-05-26T19:34:35.206Z,17.13
2019-05-26T19:39:40.843Z,16.94
2019-05-26T19:44:46.146Z,16.91
2019-05-26T19:49:52.379Z,16.90
2019-05-26T19:54:57.681Z,16.90
2019-05-26T20:00:03.080Z,16.83
2019-05-26T20:05:09.622Z,16.76
2019-05-26T20:10:16.346Z,16.66
2019-05-26T20:15:21.764Z,16.44
2019-05-26T20:20:27.131Z,16.42
2019-05-26T20:25:32.552Z,16.36
2019-05-26T20:30:38.165Z,16.31
2019-05-26T20:35:43.408Z,16.21
2019-05-26T20:40:49.009Z,16.11
2019-05-26T20:45:55.269Z,16.02
2019-05-26T20:51:00.514Z,15.94
2019-05-26T20:56:05.767Z,15.88
2019-05-26T21:01:11.040Z,15.85
2019-05-26T21:06:16.337Z,15.77
2019-05-26T21:11:21.528Z,15.76
2019-05-26T21:16:26.795Z,15.71
2019-05-26T21:21:32.909Z,15.61
2019-05-26T21:26:38.191Z,15.55
2019-05-26T21:31:43.478Z,15.44
2019-05-26T21:36:48.736Z,15.31
2019-05-26T21:41:53.995Z,15.21
2019-05-26T21:46:59.237Z,15.06
2019-05-26T21:52:04.593Z,15.10
2019-05-26T21:57:09.843Z,15.03
2019-05-26T22:02:15.826Z,14.93
2019-05-26T22:07:21.089Z,14.75
2019-05-26T22:12:26.659Z,14.62
2019-05-26T22:17:32.311Z,14.55
2019-05-26T22:22:38.624Z,14.44
2019-05-26T22:27:43.934Z,14.42
2019-05-26T22:32:49.517Z,14.36
2019-05-26T22:37:55.049Z,14.35
2019-05-26T22:43:00.309Z,14.30
2019-05-26T22:48:06.724Z,14.25
2019-05-26T22:53:11.943Z,14.18
2019-05-26T22:58:17.268Z,13.90
2019-05-26T23:03:22.501Z,13.59
2019-05-26T23:08:28.658Z,13.50
2019-05-26T23:13:34.242Z,13.42
2019-05-26T23:18:40.560Z,13.39
2019-05-26T23:23:45.774Z,13.39
2019-05-26T23:28:51.061Z,13.49
2019-05-26T23:33:56.305Z,13.51
2019-05-26T23:39:01.624Z,13.34
2019-05-26T23:44:07.204Z,13.32
2019-05-26T23:49:12.447Z,13.27
2019-05-26T23:54:17.717Z,13.28
2019-05-26T23:59:24.053Z,13.25
